createdAt,value
2018-07-12T00:01:17.751Z,93.15
2018-07-12T00:02:17.778Z,92.77
2018-07-12T00:04:10.753Z,93.34
2018-07-12T00:05:10.762Z,93.05
2018-07-12T00:07:03.692Z,93.54
2018-07-12T00:08:03.716Z,93.34
2018-07-12T00:09:56.662Z,93.34
2018-07-12T00:10:56.670Z,93.54
2018-07-12T00:12:49.617Z,93.54
2018-07-12T00:13:49.621Z,93.25
2018-07-12T00:15:42.554Z,94.01
2018-07-12T00:16:42.575Z,94.01
2018-07-12T00:18:35.522Z,93.73
2018-07-12T00:19:35.529Z,94.11
2018-07-12T00:21:28.462Z,94.11
2018-07-12T00:22:28.486Z,93.73
2018-07-12T00:24:21.434Z,93.73
2018-07-12T00:25:21.436Z,93.82
2018-07-12T00:27:14.369Z,94.01
2018-07-12T00:28:14.394Z,93.92
2018-07-12T00:30:07.851Z,93.82
2018-07-12T00:31:07.878Z,93.82
2018-07-12T00:33:00.806Z,93.92
2018-07-12T00:34:00.813Z,93.92
2018-07-12T00:35:53.732Z,93.54
2018-07-12T00:36:53.758Z,93.63
2018-07-12T00:38:47.191Z,93.82
2018-07-12T00:39:47.196Z,93.92
2018-07-12T00:41:40.165Z,93.63
2018-07-12T00:42:40.188Z,93.63
2018-07-12T00:44:33.133Z,93.68
2018-07-12T00:45:33.139Z,94.64
2018-07-12T00:47:26.055Z,94.35
2018-07-12T00:48:26.102Z,94.26
2018-07-12T00:50:19.042Z,94.74
2018-07-12T00:51:19.048Z,93.77
2018-07-12T00:53:11.978Z,93.68
2018-07-12T00:54:12.015Z,93.77
2018-07-12T00:56:04.952Z,93.77
2018-07-12T00:57:04.957Z,93.77
2018-07-12T00:58:57.908Z,94.21
2018-07-12T00:59:57.910Z,94.40
2018-07-12T01:01:50.844Z,94.98
2018-07-12T01:02:50.868Z,94.88
2018-07-12T01:04:44.326Z,95.17
2018-07-12T01:05:44.331Z,95.36
2018-07-12T01:07:37.261Z,95.26
2018-07-12T01:08:37.291Z,95.46
2018-07-12T01:10:30.235Z,95.07
2018-07-12T01:11:30.242Z,95.65
2018-07-12T01:13:23.169Z,95.84
2018-07-12T01:14:23.193Z,95.84
2018-07-12T01:16:16.657Z,95.84
2018-07-12T01:17:16.661Z,96.42
2018-07-12T01:19:09.593Z,96.03
2018-07-12T01:20:09.622Z,95.94
2018-07-12T01:22:02.564Z,96.13
2018-07-12T01:23:02.570Z,95.07
2018-07-12T01:24:55.516Z,96.22
2018-07-12T01:25:55.524Z,96.03
2018-07-12T01:27:48.454Z,96.51
2018-07-12T01:28:48.477Z,96.51
2018-07-12T01:30:41.427Z,96.70
2018-07-12T01:31:41.435Z,96.89
2018-07-12T01:33:34.360Z,96.80
2018-07-12T01:34:34.384Z,97.76
2018-07-12T01:36:27.334Z,97.56
2018-07-12T01:37:27.338Z,97.47
2018-07-12T01:39:20.270Z,97.56
2018-07-12T01:40:20.292Z,97.38
2018-07-12T01:42:13.760Z,97.56
2018-07-12T01:43:13.764Z,97.19
2018-07-12T01:45:06.789Z,96.99
2018-07-12T01:46:06.717Z,96.80
2018-07-12T01:47:59.693Z,97.09
2018-07-12T01:48:59.669Z,97.09
2018-07-12T01:50:52.615Z,96.80
2018-07-12T01:51:52.622Z,96.80
2018-07-12T01:53:45.552Z,96.61
2018-07-12T01:54:45.580Z,96.51
2018-07-12T01:56:39.134Z,95.84
2018-07-12T01:57:39.042Z,95.36
2018-07-12T01:59:31.971Z,95.07
2018-07-12T02:00:32.003Z,95.46
2018-07-12T02:02:24.945Z,95.55
2018-07-12T02:03:24.949Z,94.98
2018-07-12T02:05:17.908Z,95.17
2018-07-12T02:06:17.903Z,95.07
2018-07-12T02:08:10.835Z,95.26
2018-07-12T02:09:10.859Z,95.46
2018-07-12T02:11:03.811Z,95.55
2018-07-12T02:12:03.816Z,95.46
2018-07-12T02:13:56.732Z,95.84
2018-07-12T02:14:56.762Z,95.84
2018-07-12T02:16:59.727Z,95.84
2018-07-12T02:17:59.700Z,96.03
2018-07-12T02:19:52.605Z,96.22
2018-07-12T02:20:52.627Z,96.13
2018-07-12T02:22:45.588Z,95.84
2018-07-12T02:23:45.559Z,96.13
2018-07-12T02:25:38.614Z,96.13
2018-07-12T02:26:38.637Z,96.22
2018-07-12T02:28:31.569Z,95.84
2018-07-12T02:29:31.570Z,95.84
2018-07-12T02:31:24.506Z,96.32
2018-07-12T02:32:24.504Z,96.51
2018-07-12T02:34:17.419Z,96.80
2018-07-12T02:35:17.481Z,97.28
2018-07-12T02:37:10.372Z,97.56
2018-07-12T02:38:10.374Z,98.33
2018-07-12T02:40:03.284Z,98.53
2018-07-12T02:41:03.309Z,98.43
2018-07-12T02:42:56.238Z,98.86
2018-07-12T02:43:56.240Z,99.05
2018-07-12T02:45:49.151Z,99.15
2018-07-12T02:46:49.176Z,99.24
2018-07-12T02:48:42.104Z,99.10
2018-07-12T02:49:42.104Z,99.10
2018-07-12T02:51:35.041Z,99.01
2018-07-12T02:52:35.042Z,99.10
2018-07-12T02:54:27.955Z,99.01
2018-07-12T02:55:27.979Z,98.24
2018-07-12T02:57:20.910Z,99.39
2018-07-12T02:58:20.911Z,99.10
2018-07-12T03:00:13.821Z,99.39
2018-07-12T03:01:13.844Z,99.39
2018-07-12T03:03:06.778Z,99.34
2018-07-12T03:04:06.780Z,99.99
2018-07-12T03:05:59.695Z,99.99
2018-07-12T03:06:59.714Z,99.53
2018-07-12T03:08:52.644Z,99.99
2018-07-12T03:09:52.646Z,99.99
2018-07-12T03:11:45.557Z,99.99
2018-07-12T03:12:45.579Z,99.99
2018-07-12T03:14:38.510Z,99.99
2018-07-12T03:15:38.511Z,99.99
2018-07-12T03:17:31.442Z,99.99
2018-07-12T03:18:31.444Z,99.99
2018-07-12T03:20:24.354Z,99.99
2018-07-12T03:21:24.377Z,99.99
2018-07-12T03:23:17.307Z,99.87
2018-07-12T03:24:17.310Z,99.49
2018-07-12T03:26:10.218Z,99.49
2018-07-12T03:27:10.242Z,99.53
2018-07-12T03:29:03.173Z,99.63
2018-07-12T03:30:03.176Z,99.99
2018-07-12T03:31:56.090Z,99.99
2018-07-12T03:32:56.108Z,99.99
2018-07-12T03:34:49.044Z,99.99
2018-07-12T03:35:49.049Z,99.99
2018-07-12T03:37:41.977Z,99.99
2018-07-12T03:38:41.977Z,99.99
2018-07-12T03:40:34.892Z,99.99
2018-07-12T03:41:34.910Z,99.99
2018-07-12T03:43:27.847Z,99.99
2018-07-12T03:44:27.850Z,99.99
2018-07-12T03:46:20.760Z,99.99
2018-07-12T03:47:20.781Z,99.99
2018-07-12T03:49:13.714Z,99.99
2018-07-12T03:50:13.715Z,99.99
2018-07-12T03:52:06.627Z,99.99
2018-07-12T03:53:06.648Z,99.99
2018-07-12T03:54:59.581Z,99.99
2018-07-12T03:55:59.578Z,99.99
2018-07-12T03:57:52.507Z,99.99
2018-07-12T03:58:52.508Z,99.99
2018-07-12T04:00:45.427Z,99.99
2018-07-12T04:01:45.442Z,99.99
2018-07-12T04:03:38.402Z,99.99
2018-07-12T04:04:38.376Z,99.99
2018-07-12T04:06:31.293Z,99.99
2018-07-12T04:07:31.312Z,99.99
2018-07-12T04:09:24.245Z,99.99
2018-07-12T04:10:24.248Z,99.99
2018-07-12T04:12:17.158Z,99.99
2018-07-12T04:13:17.181Z,99.99
2018-07-12T04:15:10.113Z,99.99
2018-07-12T04:16:10.116Z,99.99
2018-07-12T04:18:03.059Z,99.99
2018-07-12T04:19:03.054Z,99.99
2018-07-12T04:20:55.989Z,99.99
2018-07-12T04:21:55.990Z,99.99
2018-07-12T04:23:48.919Z,99.99
2018-07-12T04:24:48.922Z,99.99
2018-07-12T04:26:41.834Z,99.99
2018-07-12T04:27:41.857Z,99.99
2018-07-12T04:29:34.794Z,99.99
2018-07-12T04:30:34.794Z,99.99
2018-07-12T04:32:27.709Z,99.99
2018-07-12T04:33:27.729Z,99.99
2018-07-12T04:35:20.665Z,99.99
2018-07-12T04:36:20.668Z,99.99
2018-07-12T04:38:13.581Z,99.99
2018-07-12T04:39:13.602Z,99.99
2018-07-12T04:41:06.537Z,99.99
2018-07-12T04:42:06.537Z,99.99
2018-07-12T04:43:59.466Z,99.99
2018-07-12T04:44:59.467Z,99.99
2018-07-12T04:46:52.382Z,99.99
2018-07-12T04:47:52.401Z,99.99
2018-07-12T04:49:45.334Z,99.99
2018-07-12T04:50:45.336Z,99.99
2018-07-12T04:52:38.245Z,99.99
2018-07-12T04:53:38.267Z,99.99
2018-07-12T04:55:31.198Z,99.99
2018-07-12T04:56:31.201Z,99.99
2018-07-12T04:58:24.201Z,99.99
2018-07-12T04:59:24.132Z,99.99
2018-07-12T05:01:17.065Z,99.99
2018-07-12T05:02:17.064Z,99.99
2018-07-12T05:04:10.006Z,99.99
2018-07-12T05:05:09.995Z,99.99
2018-07-12T05:07:02.907Z,99.99
2018-07-12T05:08:02.943Z,99.99
2018-07-12T05:09:55.862Z,99.99
2018-07-12T05:10:55.862Z,99.99
2018-07-12T05:12:48.776Z,99.99
2018-07-12T05:13:48.795Z,99.99
2018-07-12T05:15:41.728Z,99.99
2018-07-12T05:16:41.730Z,99.99
2018-07-12T05:18:34.649Z,99.99
2018-07-12T05:19:34.675Z,99.99
2018-07-12T05:21:28.302Z,98.05
2018-07-12T05:22:28.304Z,97.76
2018-07-12T05:24:21.219Z,97.57
2018-07-12T05:25:21.240Z,97.71
2018-07-12T05:27:14.178Z,97.71
2018-07-12T05:28:14.178Z,96.75
2018-07-12T05:30:07.125Z,95.70
2018-07-12T05:31:07.119Z,95.03
2018-07-12T05:33:00.036Z,95.31
2018-07-12T05:34:00.059Z,95.21
2018-07-12T05:35:53.486Z,94.73
2018-07-12T05:36:53.489Z,94.59
2018-07-12T05:38:46.406Z,93.73
2018-07-12T05:39:46.425Z,93.63
2018-07-12T05:41:39.361Z,92.76
2018-07-12T05:42:39.364Z,92.76
2018-07-12T05:44:32.413Z,92.33
2018-07-12T05:45:32.435Z,91.08
2018-07-12T05:47:25.371Z,90.79
2018-07-12T05:48:25.384Z,90.89
2018-07-12T05:50:18.292Z,90.06
2018-07-12T05:51:18.321Z,90.45
2018-07-12T05:53:11.262Z,89.87
2018-07-12T05:54:11.266Z,89.49
2018-07-12T05:56:04.219Z,88.14
2018-07-12T05:57:04.211Z,88.53
2018-07-12T05:58:57.135Z,87.95
2018-07-12T05:59:57.161Z,87.37
2018-07-12T06:01:50.105Z,87.22
2018-07-12T06:02:50.110Z,87.60
2018-07-12T06:04:43.020Z,87.22
2018-07-12T06:05:43.043Z,86.07
2018-07-12T06:07:35.982Z,85.58
2018-07-12T06:08:35.991Z,85.00
2018-07-12T06:10:28.907Z,85.78
2018-07-12T06:11:28.930Z,85.87
2018-07-12T06:13:21.878Z,85.68
2018-07-12T06:14:21.876Z,85.68
2018-07-12T06:16:14.794Z,86.45
2018-07-12T06:17:14.822Z,86.26
2018-07-12T06:19:07.762Z,86.65
2018-07-12T06:20:07.764Z,86.16
2018-07-12T06:22:00.705Z,85.78
2018-07-12T06:23:00.707Z,85.68
2018-07-12T06:24:53.627Z,86.26
2018-07-12T06:25:53.655Z,87.12
2018-07-12T06:27:46.593Z,86.55
2018-07-12T06:28:46.600Z,86.55
2018-07-12T06:30:39.519Z,86.55
2018-07-12T06:31:39.544Z,86.83
2018-07-12T06:33:32.486Z,86.07
2018-07-12T06:34:32.492Z,86.01
2018-07-12T06:36:25.410Z,84.28
2018-07-12T06:37:25.435Z,84.91
2018-07-12T06:39:18.376Z,84.47
2018-07-12T06:40:18.383Z,84.23
2018-07-12T06:42:11.335Z,85.34
2018-07-12T06:43:11.329Z,85.24
2018-07-12T06:45:04.246Z,84.95
2018-07-12T06:46:04.273Z,84.09
2018-07-12T06:47:57.211Z,83.03
2018-07-12T06:48:57.220Z,82.74
2018-07-12T06:50:50.139Z,82.16
2018-07-12T06:51:50.167Z,83.12
2018-07-12T06:53:43.106Z,82.45
2018-07-12T06:54:43.113Z,82.64
2018-07-12T06:56:36.037Z,83.80
2018-07-12T06:57:36.061Z,84.18
2018-07-12T06:59:29.001Z,83.51
2018-07-12T07:00:29.012Z,83.03
2018-07-12T07:02:21.930Z,82.64
2018-07-12T07:03:21.958Z,82.79
2018-07-12T07:05:14.905Z,83.22
2018-07-12T07:06:14.911Z,83.70
2018-07-12T07:08:07.859Z,83.89
2018-07-12T07:09:07.859Z,84.38
2018-07-12T07:11:00.784Z,84.86
2018-07-12T07:12:00.811Z,84.03
2018-07-12T07:13:53.779Z,83.07
2018-07-12T07:14:53.766Z,82.68
2018-07-12T07:16:46.688Z,81.47
2018-07-12T07:17:46.713Z,81.37
2018-07-12T07:19:39.662Z,81.51
2018-07-12T07:20:39.668Z,81.02
2018-07-12T07:22:32.592Z,79.19
2018-07-12T07:23:32.659Z,79.58
2018-07-12T07:25:25.568Z,78.42
2018-07-12T07:26:25.615Z,78.66
2018-07-12T07:28:19.627Z,77.40
2018-07-12T07:29:19.655Z,77.01
2018-07-12T07:31:12.732Z,77.69
2018-07-12T07:32:12.686Z,76.57
2018-07-12T07:34:05.701Z,76.37
2018-07-12T07:35:05.643Z,76.76
2018-07-12T07:36:58.562Z,75.89
2018-07-12T07:37:58.590Z,75.79
2018-07-12T07:39:59.172Z,74.93
2018-07-12T07:40:52.058Z,75.41
2018-07-12T07:42:44.961Z,76.22
2018-07-12T07:43:45.031Z,74.96
2018-07-12T07:45:37.938Z,74.29
2018-07-12T07:46:37.941Z,74.96
2018-07-12T07:48:30.866Z,72.84
2018-07-12T07:49:30.898Z,72.39
2018-07-12T07:51:23.885Z,72.55
2018-07-12T07:52:23.846Z,73.13
2018-07-12T07:54:16.812Z,73.52
2018-07-12T07:55:16.797Z,73.13
2018-07-12T07:57:09.809Z,72.94
2018-07-12T07:58:09.752Z,72.90
2018-07-12T08:00:02.707Z,74.16
2018-07-12T08:01:02.700Z,75.22
2018-07-12T08:02:55.625Z,74.54
2018-07-12T08:03:55.680Z,75.60
2018-07-12T08:05:48.600Z,75.60
2018-07-12T08:06:48.604Z,74.83
2018-07-12T08:08:41.527Z,73.90
2018-07-12T08:09:41.583Z,73.52
2018-07-12T08:11:34.502Z,74.00
2018-07-12T08:12:34.504Z,72.58
2018-07-12T08:14:27.430Z,72.88
2018-07-12T08:15:27.458Z,73.68
2018-07-12T08:17:20.396Z,70.17
2018-07-12T08:18:20.406Z,70.46
2018-07-12T08:20:13.361Z,72.58
2018-07-12T08:21:13.354Z,72.10
2018-07-12T08:23:06.303Z,72.88
2018-07-12T08:24:06.322Z,71.91
2018-07-12T08:25:59.262Z,71.62
2018-07-12T08:26:59.259Z,70.40
2018-07-12T08:28:52.223Z,71.52
2018-07-12T08:29:52.304Z,71.91
2018-07-12T08:31:45.158Z,71.42
2018-07-12T08:32:45.218Z,70.94
2018-07-12T08:34:38.087Z,71.68
2018-07-12T08:35:38.112Z,72.58
2018-07-12T08:37:31.094Z,72.20
2018-07-12T08:38:31.102Z,72.20
2018-07-12T08:40:24.563Z,72.68
2018-07-12T08:41:24.552Z,70.50
2018-07-12T08:43:17.558Z,69.43
2018-07-12T08:44:17.557Z,70.30
2018-07-12T08:46:10.440Z,70.59
2018-07-12T08:47:10.454Z,70.78
2018-07-12T08:49:03.394Z,68.95
2018-07-12T08:50:03.403Z,69.43
2018-07-12T08:51:56.368Z,70.30
2018-07-12T08:52:56.361Z,71.36
2018-07-12T08:54:49.289Z,71.98
2018-07-12T08:55:49.313Z,71.17
2018-07-12T08:57:42.261Z,70.34
2018-07-12T08:58:42.271Z,71.59
2018-07-12T09:00:35.196Z,67.82
2018-07-12T09:01:35.224Z,68.11
2018-07-12T09:03:28.165Z,68.01
2018-07-12T09:04:28.178Z,67.05
2018-07-12T09:06:21.102Z,67.63
2018-07-12T09:07:21.130Z,67.91
2018-07-12T09:09:14.082Z,69.24
2018-07-12T09:10:14.086Z,70.59
2018-07-12T09:12:07.016Z,68.69
2018-07-12T09:13:07.044Z,69.75
2018-07-12T09:14:59.995Z,69.21
2018-07-12T09:16:00.006Z,69.01
2018-07-12T09:17:52.970Z,66.53
2018-07-12T09:18:52.953Z,66.82
2018-07-12T09:20:45.920Z,65.85
2018-07-12T09:21:45.959Z,65.47
2018-07-12T09:23:38.885Z,63.24
2018-07-12T09:24:38.860Z,63.62
2018-07-12T09:26:31.790Z,64.40
2018-07-12T09:27:31.864Z,64.01
2018-07-12T09:29:24.768Z,63.82
2018-07-12T09:30:24.775Z,63.53
2018-07-12T09:32:17.702Z,64.62
2018-07-12T09:33:17.731Z,64.72
2018-07-12T09:35:10.684Z,64.82
2018-07-12T09:36:10.691Z,65.92
2018-07-12T09:38:03.616Z,62.43
2018-07-12T09:39:03.644Z,62.43
2018-07-12T09:40:56.592Z,62.62
2018-07-12T09:41:56.601Z,62.43
2018-07-12T09:43:49.549Z,62.59
2018-07-12T09:44:49.607Z,64.53
2018-07-12T09:46:42.485Z,64.27
2018-07-12T09:47:42.516Z,64.17
2018-07-12T09:49:35.467Z,62.36
2018-07-12T09:50:35.476Z,62.07
2018-07-12T09:52:28.403Z,61.10
2018-07-12T09:53:28.434Z,61.19
2018-07-12T09:55:21.385Z,60.61
2018-07-12T09:56:21.469Z,60.13
2018-07-12T09:58:14.321Z,60.61
2018-07-12T09:59:14.349Z,60.88
2018-07-12T10:01:07.341Z,60.78
2018-07-12T10:02:07.311Z,61.46
2018-07-12T10:04:00.234Z,62.16
2018-07-12T10:05:00.263Z,61.39
2018-07-12T10:06:53.705Z,60.64
2018-07-12T10:07:53.717Z,59.67
2018-07-12T10:09:46.668Z,59.87
2018-07-12T10:10:46.678Z,59.00
2018-07-12T10:12:39.605Z,59.19
2018-07-12T10:13:39.638Z,59.48
2018-07-12T10:15:32.591Z,58.97
2018-07-12T10:16:32.595Z,60.23
2018-07-12T10:18:25.527Z,60.03
2018-07-12T10:19:25.559Z,59.64
2018-07-12T10:21:18.511Z,59.09
2018-07-12T10:22:18.521Z,58.51
2018-07-12T10:24:11.943Z,57.93
2018-07-12T10:25:11.976Z,58.22
2018-07-12T10:27:05.417Z,58.61
2018-07-12T10:28:05.431Z,57.44
2018-07-12T10:29:58.381Z,56.60
2018-07-12T10:30:58.386Z,57.18
2018-07-12T10:32:51.820Z,59.64
2018-07-12T10:33:51.854Z,60.03
2018-07-12T10:35:44.802Z,60.68
2018-07-12T10:36:44.808Z,60.58
2018-07-12T10:38:37.800Z,60.49
2018-07-12T10:39:37.788Z,60.00
2018-07-12T10:41:30.863Z,61.00
2018-07-12T10:42:30.852Z,61.10
2018-07-12T10:44:23.805Z,59.09
2018-07-12T10:45:23.809Z,58.70
2018-07-12T10:47:16.761Z,57.34
2018-07-12T10:48:16.770Z,58.64
2018-07-12T10:50:09.773Z,57.54
2018-07-12T10:51:09.806Z,57.15
2018-07-12T10:53:02.847Z,57.06
2018-07-12T10:54:02.859Z,57.25
2018-07-12T10:55:55.910Z,56.47
2018-07-12T10:56:55.921Z,55.60
2018-07-12T10:58:49.462Z,56.50
2018-07-12T10:59:49.482Z,54.46
2018-07-12T11:01:42.560Z,54.14
2018-07-12T11:02:42.571Z,54.82
2018-07-12T11:04:35.612Z,55.47
2018-07-12T11:05:35.596Z,56.54
2018-07-12T11:07:28.646Z,55.18
2018-07-12T11:08:28.654Z,54.60
2018-07-12T11:10:22.094Z,55.67
2018-07-12T11:11:22.123Z,55.21
2018-07-12T11:13:15.169Z,54.46
2018-07-12T11:14:15.180Z,55.82
2018-07-12T11:16:08.226Z,54.58
2018-07-12T11:17:08.235Z,55.46
2018-07-12T11:19:01.390Z,53.71
2018-07-12T11:20:01.308Z,53.61
2018-07-12T11:21:54.421Z,52.55
2018-07-12T11:22:54.382Z,53.03
2018-07-12T11:24:47.374Z,54.10
2018-07-12T11:25:47.893Z,53.61
2018-07-12T11:27:40.989Z,53.25
2018-07-12T11:28:42.081Z,53.57
2018-07-12T11:30:34.134Z,50.36
2018-07-12T11:31:34.169Z,50.56
2018-07-12T11:33:28.290Z,51.23
2018-07-12T11:34:28.212Z,50.65
2018-07-12T11:36:21.472Z,51.45
2018-07-12T11:37:21.269Z,50.68
2018-07-12T11:39:14.316Z,49.71
2018-07-12T11:40:14.326Z,48.73
2018-07-12T11:42:07.371Z,48.34
2018-07-12T11:43:07.385Z,47.37
2018-07-12T11:45:00.426Z,49.02
2018-07-12T11:46:00.440Z,49.41
2018-07-12T11:47:53.893Z,50.68
2018-07-12T11:48:53.906Z,49.99
2018-07-12T11:50:47.092Z,49.68
2018-07-12T11:51:47.002Z,50.07
2018-07-12T11:53:40.307Z,50.34
2018-07-12T11:54:40.297Z,50.34
2018-07-12T11:56:33.250Z,50.53
2018-07-12T11:57:33.284Z,51.31
2018-07-12T11:59:26.328Z,52.55
2018-07-12T12:00:26.337Z,53.91
2018-07-12T12:02:19.777Z,54.00
2018-07-12T12:03:19.803Z,54.58
2018-07-12T12:05:12.846Z,55.33
2018-07-12T12:06:12.914Z,55.43
2018-07-12T12:08:06.824Z,56.50
2018-07-12T12:09:06.835Z,56.50
2018-07-12T12:10:59.862Z,55.92
2018-07-12T12:11:59.891Z,55.75
2018-07-12T12:13:52.940Z,55.27
2018-07-12T12:14:52.949Z,55.75
2018-07-12T12:16:45.977Z,55.00
2018-07-12T12:17:46.010Z,52.69
2018-07-12T12:19:39.051Z,52.98
2018-07-12T12:20:39.063Z,52.69
2018-07-12T12:22:32.089Z,50.46
2018-07-12T12:23:32.122Z,50.75
2018-07-12T12:25:25.188Z,49.78
2018-07-12T12:26:25.175Z,50.16
2018-07-12T12:28:18.246Z,51.43
2018-07-12T12:29:18.232Z,52.89
2018-07-12T12:31:11.768Z,52.40
2018-07-12T12:32:11.799Z,52.21
2018-07-12T12:34:04.868Z,52.59
2018-07-12T12:35:04.858Z,53.35
2018-07-12T12:36:57.883Z,53.42
2018-07-12T12:37:57.916Z,53.61
2018-07-12T12:39:50.955Z,53.91
2018-07-12T12:40:51.039Z,53.22
2018-07-12T12:42:43.996Z,53.42
2018-07-12T12:43:44.026Z,54.20
2018-07-12T12:45:37.071Z,54.58
2018-07-12T12:46:37.125Z,55.17
2018-07-12T12:48:30.134Z,55.63
2018-07-12T12:49:30.145Z,55.43
2018-07-12T12:51:23.697Z,56.47
2018-07-12T12:52:23.708Z,57.42
2018-07-12T12:54:26.666Z,58.67
2018-07-12T12:55:26.675Z,58.84
2018-07-12T12:57:19.602Z,60.39
2018-07-12T12:58:19.629Z,60.68
2018-07-12T13:00:12.594Z,60.68
2018-07-12T13:01:12.582Z,61.07
2018-07-12T13:03:05.508Z,61.82
2018-07-12T13:04:05.544Z,61.52
2018-07-12T13:05:58.480Z,61.24
2018-07-12T13:06:58.490Z,62.69
2018-07-12T13:08:51.414Z,61.85
2018-07-12T13:09:51.445Z,60.49
2018-07-12T13:11:44.388Z,60.88
2018-07-12T13:12:44.399Z,60.49
2018-07-12T13:14:37.503Z,61.00
2018-07-12T13:15:37.498Z,60.71
2018-07-12T13:17:30.464Z,60.23
2018-07-12T13:18:30.453Z,58.58
2018-07-12T13:20:23.400Z,58.67
2018-07-12T13:21:23.410Z,60.74
2018-07-12T13:23:16.399Z,58.44
2018-07-12T13:24:16.364Z,57.76
2018-07-12T13:26:09.426Z,56.70
2018-07-12T13:27:09.324Z,57.50
2018-07-12T13:29:02.258Z,57.11
2018-07-12T13:30:02.287Z,56.72
2018-07-12T13:31:55.469Z,57.60
2018-07-12T13:32:55.424Z,58.57
2018-07-12T13:34:48.355Z,57.21
2018-07-12T13:35:48.385Z,58.08
2018-07-12T13:37:41.337Z,58.37
2018-07-12T13:38:41.343Z,58.64
2018-07-12T13:40:34.300Z,58.67
2018-07-12T13:41:34.299Z,58.86
2018-07-12T13:43:27.224Z,58.57
2018-07-12T13:44:27.253Z,54.68
2018-07-12T13:46:20.201Z,53.03
2018-07-12T13:47:20.210Z,52.25
2018-07-12T13:49:14.132Z,54.46
2018-07-12T13:50:14.162Z,55.92
2018-07-12T13:52:07.142Z,57.44
2018-07-12T13:53:07.115Z,57.06
2018-07-12T13:55:00.050Z,55.41
2018-07-12T13:56:00.067Z,55.31
2018-07-12T13:57:53.018Z,55.18
2018-07-12T13:58:53.022Z,55.47
2018-07-12T14:00:45.978Z,56.54
2018-07-12T14:01:45.999Z,57.42
2018-07-12T14:03:38.903Z,58.70
2018-07-12T14:04:38.931Z,58.67
2018-07-12T14:06:31.880Z,59.84
2018-07-12T14:07:31.886Z,60.03
2018-07-12T14:09:24.811Z,59.45
2018-07-12T14:10:24.839Z,59.64
2018-07-12T14:12:17.791Z,59.06
2018-07-12T14:13:17.794Z,58.77
2018-07-12T14:15:10.727Z,58.48
2018-07-12T14:16:10.752Z,58.00
2018-07-12T14:18:03.705Z,58.29
2018-07-12T14:19:03.742Z,58.70
2018-07-12T14:20:56.708Z,57.51
2018-07-12T14:21:56.693Z,57.42
2018-07-12T14:23:49.650Z,58.09
2018-07-12T14:24:49.644Z,58.77
2018-07-12T14:26:42.619Z,59.71
2018-07-12T14:27:42.629Z,59.71
2018-07-12T14:29:35.735Z,61.72
2018-07-12T14:30:35.582Z,61.91
2018-07-12T14:32:28.573Z,63.75
2018-07-12T14:33:28.536Z,63.17
2018-07-12T14:35:21.458Z,63.75
2018-07-12T14:36:21.488Z,64.82
2018-07-12T14:38:14.431Z,65.79
2018-07-12T14:39:14.441Z,65.79
2018-07-12T14:41:07.361Z,65.79
2018-07-12T14:42:07.390Z,67.24
2018-07-12T14:44:00.334Z,68.95
2018-07-12T14:45:00.341Z,70.21
2018-07-12T14:46:53.262Z,72.95
2018-07-12T14:47:53.288Z,74.49
2018-07-12T14:49:46.232Z,75.71
2018-07-12T14:50:46.237Z,76.74
2018-07-12T14:52:40.243Z,79.60
2018-07-12T14:53:40.184Z,81.63
2018-07-12T14:55:33.145Z,85.06
2018-07-12T14:56:33.133Z,85.31
2018-07-12T14:58:26.079Z,87.01
2018-07-12T14:59:26.074Z,89.42
2018-07-12T15:01:26.627Z,92.46
2018-07-12T15:02:19.022Z,92.36
2018-07-12T15:04:11.985Z,90.63
2018-07-12T15:05:11.960Z,89.86
2018-07-12T15:07:04.874Z,91.50
2018-07-12T15:08:04.899Z,91.16
2018-07-12T15:09:57.892Z,89.81
2018-07-12T15:10:57.851Z,88.95
2018-07-12T15:12:50.769Z,88.56
2018-07-12T15:13:50.798Z,87.70
2018-07-12T15:15:43.731Z,87.70
2018-07-12T15:16:43.744Z,88.71
2018-07-12T15:18:36.674Z,89.86
2018-07-12T15:19:36.678Z,90.00
2018-07-12T15:21:29.593Z,89.77
2018-07-12T15:22:29.618Z,89.96
2018-07-12T15:24:22.553Z,91.02
2018-07-12T15:25:22.568Z,90.54
2018-07-12T15:27:15.499Z,90.34
2018-07-12T15:28:15.500Z,90.58
2018-07-12T15:30:08.978Z,90.30
2018-07-12T15:31:08.935Z,90.10
2018-07-12T15:33:01.919Z,90.78
2018-07-12T15:34:01.877Z,91.26
2018-07-12T15:35:54.818Z,91.36
2018-07-12T15:36:54.867Z,92.03
2018-07-12T15:38:48.759Z,92.27
2018-07-12T15:39:48.761Z,92.27
2018-07-12T15:41:41.696Z,92.27
2018-07-12T15:42:41.706Z,93.04
2018-07-12T15:44:34.672Z,92.27
2018-07-12T15:45:34.653Z,92.27
2018-07-12T15:47:27.583Z,92.32
2018-07-12T15:48:27.606Z,92.02
2018-07-12T15:50:20.578Z,91.64
2018-07-12T15:51:20.549Z,91.44
2018-07-12T15:53:13.463Z,91.35
2018-07-12T15:54:13.492Z,91.74
2018-07-12T15:56:06.434Z,91.74
2018-07-12T15:57:06.434Z,91.44
2018-07-12T15:58:59.372Z,91.35
2018-07-12T15:59:59.376Z,89.95
2018-07-12T16:01:52.329Z,88.69
2018-07-12T16:02:52.330Z,88.69
2018-07-12T16:04:45.277Z,87.24
2018-07-12T16:05:45.316Z,87.92
2018-07-12T16:07:38.246Z,87.73
2018-07-12T16:08:38.226Z,87.34
2018-07-12T16:10:31.164Z,88.50
2018-07-12T16:11:31.170Z,87.34
2018-07-12T16:13:24.200Z,87.63
2018-07-12T16:14:24.182Z,86.96
2018-07-12T16:16:17.057Z,87.63
2018-07-12T16:17:17.059Z,87.48
2018-07-12T16:19:10.004Z,86.61
2018-07-12T16:20:10.005Z,87.09
2018-07-12T16:22:03.001Z,86.42
2018-07-12T16:23:02.952Z,86.22
2018-07-12T16:24:55.891Z,86.32
2018-07-12T16:25:56.000Z,86.32
2018-07-12T16:27:48.820Z,86.32
2018-07-12T16:28:48.846Z,86.65
2018-07-12T16:30:41.945Z,85.88
2018-07-12T16:31:42.509Z,86.56
2018-07-12T16:33:34.873Z,85.78
2018-07-12T16:34:34.899Z,84.05
2018-07-12T16:36:27.886Z,83.37
2018-07-12T16:37:27.948Z,81.92
2018-07-12T16:39:20.798Z,81.34
2018-07-12T16:40:20.881Z,80.28
2018-07-12T16:42:13.983Z,79.31
2018-07-12T16:43:13.777Z,80.08
2018-07-12T16:45:06.830Z,81.44
2018-07-12T16:46:06.732Z,82.02
2018-07-12T16:47:59.678Z,81.34
2018-07-12T16:48:59.688Z,82.11
2018-07-12T16:50:52.828Z,81.19
2018-07-12T16:51:52.843Z,80.61
2018-07-12T16:53:45.837Z,78.58
2018-07-12T16:54:45.848Z,78.83
2018-07-12T16:56:39.329Z,80.47
2018-07-12T16:57:38.734Z,81.44
2018-07-12T16:59:31.767Z,80.66
2018-07-12T17:00:31.783Z,81.34
2018-07-12T17:02:24.972Z,81.15
2018-07-12T17:03:24.972Z,81.34
2018-07-12T17:05:17.788Z,82.79
2018-07-12T17:06:17.981Z,82.50
2018-07-12T17:08:10.692Z,82.60
2018-07-12T17:09:10.748Z,81.68
2018-07-12T17:11:03.668Z,83.14
2018-07-12T17:12:03.688Z,82.75
2018-07-12T17:13:56.640Z,83.72
2018-07-12T17:14:56.624Z,83.77
2018-07-12T17:16:50.589Z,85.02
2018-07-12T17:17:50.583Z,84.64
2018-07-12T17:19:43.578Z,86.47
2018-07-12T17:20:43.528Z,85.80
2018-07-12T17:22:36.446Z,86.66
2018-07-12T17:23:36.512Z,87.05
2018-07-12T17:25:29.429Z,87.73
2018-07-12T17:26:29.427Z,87.73
2018-07-12T17:28:22.349Z,86.66
2018-07-12T17:29:22.378Z,85.41
2018-07-12T17:31:15.878Z,84.25
2018-07-12T17:32:15.820Z,84.30
2018-07-12T17:34:08.738Z,84.44
2018-07-12T17:35:08.767Z,84.54
2018-07-12T17:37:02.017Z,84.74
2018-07-12T17:38:01.936Z,84.54
2018-07-12T17:39:54.877Z,83.96
2018-07-12T17:40:54.887Z,83.09
2018-07-12T17:42:47.804Z,83.77
2018-07-12T17:43:47.852Z,85.41
2018-07-12T17:45:40.768Z,84.93
2018-07-12T17:46:40.813Z,85.12
2018-07-12T17:48:33.692Z,84.54
2018-07-12T17:49:33.721Z,85.12
2018-07-12T17:51:26.683Z,85.50
2018-07-12T17:52:26.667Z,85.89
2018-07-12T17:54:19.587Z,85.80
2018-07-12T17:55:19.615Z,85.41
2018-07-12T17:57:12.589Z,85.60
2018-07-12T17:58:12.575Z,85.60
2018-07-12T18:00:05.515Z,85.60
2018-07-12T18:01:05.530Z,85.60
2018-07-12T18:02:58.444Z,86.47
2018-07-12T18:03:58.469Z,86.28
2018-07-12T18:05:51.901Z,86.57
2018-07-12T18:06:51.908Z,86.28
2018-07-12T18:08:44.895Z,86.47
2018-07-12T18:09:44.890Z,86.66
2018-07-12T18:11:37.822Z,86.57
2018-07-12T18:12:37.832Z,87.34
2018-07-12T18:14:30.746Z,87.24
2018-07-12T18:15:30.776Z,87.34
2018-07-12T18:17:23.711Z,87.34
2018-07-12T18:18:23.713Z,87.73
2018-07-12T18:20:16.656Z,87.82
2018-07-12T18:21:16.662Z,87.73
2018-07-12T18:23:09.575Z,88.02
2018-07-12T18:24:09.606Z,88.21
2018-07-12T18:26:02.544Z,87.92
2018-07-12T18:27:02.573Z,87.73
2018-07-12T18:28:55.696Z,87.82
2018-07-12T18:29:55.725Z,87.87
2018-07-12T18:31:48.664Z,88.02
2018-07-12T18:32:48.669Z,87.63
2018-07-12T18:34:41.591Z,87.34